Terminal Aerodrome Forecast
Issued by NWS

Home | Current Version | Previous Version | Text Only | Print | Product List | Glossary On
Versions: 1 2 3 4 5 6 7 8 9 10 11 12 13 14 15 16 17 18 19 20 21 22 23 24 25 26 27 28 29 30 31 32 33 34 35
000
FTUS44 KLIX 050500
TAFHUM
TAF
KHUM 050521Z 0506/0606 19007KT P6SM SCT020 BKN050
     FM050900 25006KT 4SM BR BKN010
     FM051300 32010KT P6SM BKN008
     FM051700 35018KT P6SM BKN008
     FM052100 36021KT P6SM OVC015
     FM060000 01020KT P6SM OVC025=

USA.gov is the U.S. government's official web portal to all federal, state and local government web resources and services.